sensor_id;sensor_type;location;lat;lon;timestamp;temperature;humidity
16136;DHT22;8173;48.354;9.248;2022-12-20T00:00:48;0.50;99.90
16136;DHT22;8173;48.354;9.248;2022-12-20T00:03:15;0.30;99.90
16136;DHT22;8173;48.354;9.248;2022-12-20T00:05:42;0.20;99.90
16136;DHT22;8173;48.354;9.248;2022-12-20T00:08:09;0.20;99.90
16136;DHT22;8173;48.354;9.248;2022-12-20T00:10:38;0.20;99.90
16136;DHT22;8173;48.354;9.248;2022-12-20T00:13:06;0.10;99.90
16136;DHT22;8173;48.354;9.248;2022-12-20T00:15:33;0.20;99.90
16136;DHT22;8173;48.354;9.248;2022-12-20T00:18:00;0.10;99.90
16136;DHT22;8173;48.354;9.248;2022-12-20T00:20:29;0.10;99.90
16136;DHT22;8173;48.354;9.248;2022-12-20T00:22:56;0.00;99.90
16136;DHT22;8173;48.354;9.248;2022-12-20T00:25:22;-0.10;99.90
16136;DHT22;8173;48.354;9.248;2022-12-20T00:27:50;-0.10;99.90
16136;DHT22;8173;48.354;9.248;2022-12-20T00:30:18;-0.10;99.90
16136;DHT22;8173;48.354;9.248;2022-12-20T00:32:45;-0.10;99.90
16136;DHT22;8173;48.354;9.248;2022-12-20T00:35:12;0.00;99.90
16136;DHT22;8173;48.354;9.248;2022-12-20T00:37:39;0.00;99.90
16136;DHT22;8173;48.354;9.248;2022-12-20T00:40:06;0.00;99.90
16136;DHT22;8173;48.354;9.248;2022-12-20T00:42:33;0.00;99.90
16136;DHT22;8173;48.354;9.248;2022-12-20T00:45:02;0.00;99.90
16136;DHT22;8173;48.354;9.248;2022-12-20T00:47:28;0.00;99.90
16136;DHT22;8173;48.354;9.248;2022-12-20T00:49:55;-0.10;99.90
16136;DHT22;8173;48.354;9.248;2022-12-20T00:52:22;0.00;99.90
16136;DHT22;8173;48.354;9.248;2022-12-20T00:54:48;0.10;99.90
16136;DHT22;8173;48.354;9.248;2022-12-20T00:57:15;0.00;99.90
16136;DHT22;8173;48.354;9.248;2022-12-20T00:59:42;-0.10;99.90
16136;DHT22;8173;48.354;9.248;2022-12-20T01:02:10;-0.20;99.90
16136;DHT22;8173;48.354;9.248;2022-12-20T01:04:37;-0.20;99.90
16136;DHT22;8173;48.354;9.248;2022-12-20T01:07:03;-0.30;99.90
16136;DHT22;8173;48.354;9.248;2022-12-20T01:09:30;-0.40;99.90
16136;DHT22;8173;48.354;9.248;2022-12-20T01:11:57;-0.40;99.90
16136;DHT22;8173;48.354;9.248;2022-12-20T01:14:24;-0.40;99.90
16136;DHT22;8173;48.354;9.248;2022-12-20T01:16:51;-0.40;99.90
16136;DHT22;8173;48.354;9.248;2022-12-20T01:19:19;-0.40;99.90
16136;DHT22;8173;48.354;9.248;2022-12-20T01:21:46;-0.40;99.90
16136;DHT22;8173;48.354;9.248;2022-12-20T01:24:14;-0.40;99.90
16136;DHT22;8173;48.354;9.248;2022-12-20T01:26:41;-0.40;99.90
16136;DHT22;8173;48.354;9.248;2022-12-20T01:29:08;-0.40;99.90
16136;DHT22;8173;48.354;9.248;2022-12-20T01:31:35;-0.30;99.90
16136;DHT22;8173;48.354;9.248;2022-12-20T01:34:02;-0.30;99.90
16136;DHT22;8173;48.354;9.248;2022-12-20T01:36:32;-0.40;99.90
16136;DHT22;8173;48.354;9.248;2022-12-20T01:39:00;-0.40;99.90
16136;DHT22;8173;48.354;9.248;2022-12-20T01:41:29;-0.40;99.90
16136;DHT22;8173;48.354;9.248;2022-12-20T01:43:57;-0.50;99.90
16136;DHT22;8173;48.354;9.248;2022-12-20T01:46:26;-0.50;99.90
16136;DHT22;8173;48.354;9.248;2022-12-20T01:48:55;-0.40;99.90
16136;DHT22;8173;48.354;9.248;2022-12-20T01:51:23;-0.40;99.90
16136;DHT22;8173;48.354;9.248;2022-12-20T01:53:55;-0.40;99.90
16136;DHT22;8173;48.354;9.248;2022-12-20T01:56:23;-0.30;99.90
16136;DHT22;8173;48.354;9.248;2022-12-20T01:58:50;-0.30;99.90
16136;DHT22;8173;48.354;9.248;2022-12-20T02:01:18;-0.20;99.90
16136;DHT22;8173;48.354;9.248;2022-12-20T02:03:48;-0.20;99.90
16136;DHT22;8173;48.354;9.248;2022-12-20T02:06:16;-0.30;99.90
16136;DHT22;8173;48.354;9.248;2022-12-20T02:08:45;-0.30;99.90
16136;DHT22;8173;48.354;9.248;2022-12-20T02:14:11;-0.20;99.90
16136;DHT22;8173;48.354;9.248;2022-12-20T02:16:44;-0.20;99.90
16136;DHT22;8173;48.354;9.248;2022-12-20T02:19:26;-0.20;99.90
16136;DHT22;8173;48.354;9.248;2022-12-20T02:22:03;-0.10;99.90
16136;DHT22;8173;48.354;9.248;2022-12-20T02:24:59;-0.10;99.90
16136;DHT22;8173;48.354;9.248;2022-12-20T02:27:40;0.00;99.90
16136;DHT22;8173;48.354;9.248;2022-12-20T02:30:13;0.10;99.90
16136;DHT22;8173;48.354;9.248;2022-12-20T02:32:46;0.10;99.90
16136;DHT22;8173;48.354;9.248;2022-12-20T02:35:19;0.00;99.90
16136;DHT22;8173;48.354;9.248;2022-12-20T02:37:49;0.00;99.90
16136;DHT22;8173;48.354;9.248;2022-12-20T02:40:18;0.00;99.90
16136;DHT22;8173;48.354;9.248;2022-12-20T02:42:48;0.00;99.90
16136;DHT22;8173;48.354;9.248;2022-12-20T02:45:20;0.10;99.90
16136;DHT22;8173;48.354;9.248;2022-12-20T02:47:49;0.10;99.90
16136;DHT22;8173;48.354;9.248;2022-12-20T02:50:20;0.00;99.90
16136;DHT22;8173;48.354;9.248;2022-12-20T02:52:49;-0.10;99.90
16136;DHT22;8173;48.354;9.248;2022-12-20T02:55:17;-0.20;99.90
16136;DHT22;8173;48.354;9.248;2022-12-20T02:57:49;-0.30;99.90
16136;DHT22;8173;48.354;9.248;2022-12-20T03:00:19;-0.40;99.90
16136;DHT22;8173;48.354;9.248;2022-12-20T03:02:48;-0.30;99.90
16136;DHT22;8173;48.354;9.248;2022-12-20T03:05:35;-0.30;99.90
16136;DHT22;8173;48.354;9.248;2022-12-20T03:08:04;-0.40;99.90
16136;DHT22;8173;48.354;9.248;2022-12-20T03:10:30;-0.30;99.90
16136;DHT22;8173;48.354;9.248;2022-12-20T03:12:57;-0.20;99.90
16136;DHT22;8173;48.354;9.248;2022-12-20T03:15:25;-0.10;99.90
16136;DHT22;8173;48.354;9.248;2022-12-20T03:17:52;-0.20;99.90
16136;DHT22;8173;48.354;9.248;2022-12-20T03:20:18;-0.10;99.90
16136;DHT22;8173;48.354;9.248;2022-12-20T03:22:45;-0.10;99.90
16136;DHT22;8173;48.354;9.248;2022-12-20T03:25:12;0.00;99.90
16136;DHT22;8173;48.354;9.248;2022-12-20T03:27:39;0.00;99.90
16136;DHT22;8173;48.354;9.248;2022-12-20T03:30:07;-0.10;99.90
16136;DHT22;8173;48.354;9.248;2022-12-20T03:32:35;-0.10;99.90
16136;DHT22;8173;48.354;9.248;2022-12-20T03:35:02;-0.10;99.90
16136;DHT22;8173;48.354;9.248;2022-12-20T03:37:29;0.00;99.90
16136;DHT22;8173;48.354;9.248;2022-12-20T03:39:56;0.00;99.90
16136;DHT22;8173;48.354;9.248;2022-12-20T03:42:23;0.10;99.90
16136;DHT22;8173;48.354;9.248;2022-12-20T03:44:49;0.20;99.90
16136;DHT22;8173;48.354;9.248;2022-12-20T03:47:16;0.20;99.90
16136;DHT22;8173;48.354;9.248;2022-12-20T03:49:44;0.20;99.90
16136;DHT22;8173;48.354;9.248;2022-12-20T03:52:12;0.20;99.90
16136;DHT22;8173;48.354;9.248;2022-12-20T03:54:39;0.10;99.90
16136;DHT22;8173;48.354;9.248;2022-12-20T03:57:05;0.10;99.90
16136;DHT22;8173;48.354;9.248;2022-12-20T03:59:32;0.10;99.90
16136;DHT22;8173;48.354;9.248;2022-12-20T04:02:00;0.20;99.90
16136;DHT22;8173;48.354;9.248;2022-12-20T04:04:26;0.20;99.90
16136;DHT22;8173;48.354;9.248;2022-12-20T04:06:55;0.30;99.90
16136;DHT22;8173;48.354;9.248;2022-12-20T04:09:21;0.30;99.90
16136;DHT22;8173;48.354;9.248;2022-12-20T04:11:48;0.30;99.90
16136;DHT22;8173;48.354;9.248;2022-12-20T04:14:15;0.40;99.90
16136;DHT22;8173;48.354;9.248;2022-12-20T04:16:42;0.50;99.90
16136;DHT22;8173;48.354;9.248;2022-12-20T04:19:08;0.70;99.90
16136;DHT22;8173;48.354;9.248;2022-12-20T04:21:36;0.80;99.90
16136;DHT22;8173;48.354;9.248;2022-12-20T04:24:05;1.00;99.90
16136;DHT22;8173;48.354;9.248;2022-12-20T04:26:32;1.00;99.90
16136;DHT22;8173;48.354;9.248;2022-12-20T04:28:59;1.10;99.90
16136;DHT22;8173;48.354;9.248;2022-12-20T04:31:26;1.10;99.90
16136;DHT22;8173;48.354;9.248;2022-12-20T04:33:53;1.10;99.90
16136;DHT22;8173;48.354;9.248;2022-12-20T04:36:19;1.00;99.90
16136;DHT22;8173;48.354;9.248;2022-12-20T04:38:46;1.00;99.90
16136;DHT22;8173;48.354;9.248;2022-12-20T04:41:15;1.00;99.90
16136;DHT22;8173;48.354;9.248;2022-12-20T04:43:48;0.90;99.90
16136;DHT22;8173;48.354;9.248;2022-12-20T04:46:15;0.90;99.90
16136;DHT22;8173;48.354;9.248;2022-12-20T04:48:42;0.90;99.90
16136;DHT22;8173;48.354;9.248;2022-12-20T04:51:09;0.90;99.90
16136;DHT22;8173;48.354;9.248;2022-12-20T04:53:35;0.90;99.90
16136;DHT22;8173;48.354;9.248;2022-12-20T04:56:16;1.00;99.90
16136;DHT22;8173;48.354;9.248;2022-12-20T04:58:44;1.00;99.90
16136;DHT22;8173;48.354;9.248;2022-12-20T05:01:11;1.00;99.90
16136;DHT22;8173;48.354;9.248;2022-12-20T05:03:38;0.90;99.90
16136;DHT22;8173;48.354;9.248;2022-12-20T05:06:05;1.00;99.90
16136;DHT22;8173;48.354;9.248;2022-12-20T05:08:32;1.10;99.90
16136;DHT22;8173;48.354;9.248;2022-12-20T05:10:59;1.10;99.90
16136;DHT22;8173;48.354;9.248;2022-12-20T05:13:27;1.10;99.90
16136;DHT22;8173;48.354;9.248;2022-12-20T05:15:55;1.20;99.90
16136;DHT22;8173;48.354;9.248;2022-12-20T05:18:22;1.20;99.90
16136;DHT22;8173;48.354;9.248;2022-12-20T05:20:50;1.20;99.90
16136;DHT22;8173;48.354;9.248;2022-12-20T05:23:37;1.20;99.90
16136;DHT22;8173;48.354;9.248;2022-12-20T05:26:21;1.20;99.90
16136;DHT22;8173;48.354;9.248;2022-12-20T05:28:50;1.10;99.90
16136;DHT22;8173;48.354;9.248;2022-12-20T05:31:17;1.10;99.90
16136;DHT22;8173;48.354;9.248;2022-12-20T05:33:44;1.10;99.90
16136;DHT22;8173;48.354;9.248;2022-12-20T05:36:11;1.10;99.90
16136;DHT22;8173;48.354;9.248;2022-12-20T05:38:38;1.10;99.90
16136;DHT22;8173;48.354;9.248;2022-12-20T05:41:04;1.10;99.90
16136;DHT22;8173;48.354;9.248;2022-12-20T05:43:31;1.20;99.90
16136;DHT22;8173;48.354;9.248;2022-12-20T05:45:59;1.10;99.90
16136;DHT22;8173;48.354;9.248;2022-12-20T05:48:26;1.10;99.90
16136;DHT22;8173;48.354;9.248;2022-12-20T05:50:53;1.10;99.90
16136;DHT22;8173;48.354;9.248;2022-12-20T05:53:20;1.10;99.90
16136;DHT22;8173;48.354;9.248;2022-12-20T05:55:48;1.10;99.90
16136;DHT22;8173;48.354;9.248;2022-12-20T05:58:15;1.10;99.90
16136;DHT22;8173;48.354;9.248;2022-12-20T06:00:43;1.10;99.90
16136;DHT22;8173;48.354;9.248;2022-12-20T06:03:11;1.20;99.90
16136;DHT22;8173;48.354;9.248;2022-12-20T06:05:39;1.20;99.90
16136;DHT22;8173;48.354;9.248;2022-12-20T06:08:07;1.20;99.90
16136;DHT22;8173;48.354;9.248;2022-12-20T06:10:34;1.20;99.90
16136;DHT22;8173;48.354;9.248;2022-12-20T06:13:02;1.20;99.90
16136;DHT22;8173;48.354;9.248;2022-12-20T06:15:29;1.10;99.90
16136;DHT22;8173;48.354;9.248;2022-12-20T06:17:56;1.10;99.90
16136;DHT22;8173;48.354;9.248;2022-12-20T06:20:24;1.00;99.90
16136;DHT22;8173;48.354;9.248;2022-12-20T06:22:50;1.00;99.90
16136;DHT22;8173;48.354;9.248;2022-12-20T06:25:18;1.10;99.90
16136;DHT22;8173;48.354;9.248;2022-12-20T06:27:45;1.10;99.90
16136;DHT22;8173;48.354;9.248;2022-12-20T06:30:12;1.10;99.90
16136;DHT22;8173;48.354;9.248;2022-12-20T06:32:39;1.10;99.90
16136;DHT22;8173;48.354;9.248;2022-12-20T06:35:07;1.10;99.90
16136;DHT22;8173;48.354;9.248;2022-12-20T06:37:35;1.10;99.90
16136;DHT22;8173;48.354;9.248;2022-12-20T06:40:05;1.20;99.90
16136;DHT22;8173;48.354;9.248;2022-12-20T06:42:32;1.20;99.90
16136;DHT22;8173;48.354;9.248;2022-12-20T06:44:58;1.30;99.90
16136;DHT22;8173;48.354;9.248;2022-12-20T06:47:25;1.30;99.90
16136;DHT22;8173;48.354;9.248;2022-12-20T06:49:52;1.30;99.90
16136;DHT22;8173;48.354;9.248;2022-12-20T06:52:18;1.40;99.90
16136;DHT22;8173;48.354;9.248;2022-12-20T06:54:47;1.40;99.90
16136;DHT22;8173;48.354;9.248;2022-12-20T06:57:13;1.50;99.90
16136;DHT22;8173;48.354;9.248;2022-12-20T06:59:40;1.50;99.90
16136;DHT22;8173;48.354;9.248;2022-12-20T07:02:09;1.50;99.90
16136;DHT22;8173;48.354;9.248;2022-12-20T07:04:36;1.40;99.90
16136;DHT22;8173;48.354;9.248;2022-12-20T07:07:03;1.40;99.90
16136;DHT22;8173;48.354;9.248;2022-12-20T07:09:30;1.40;99.90
16136;DHT22;8173;48.354;9.248;2022-12-20T07:11:58;1.40;99.90
16136;DHT22;8173;48.354;9.248;2022-12-20T07:14:25;1.40;99.90
16136;DHT22;8173;48.354;9.248;2022-12-20T07:16:52;1.30;99.90
16136;DHT22;8173;48.354;9.248;2022-12-20T07:19:19;1.30;99.90
16136;DHT22;8173;48.354;9.248;2022-12-20T07:21:46;1.30;99.90
16136;DHT22;8173;48.354;9.248;2022-12-20T07:24:13;1.40;99.90
16136;DHT22;8173;48.354;9.248;2022-12-20T07:26:39;1.30;99.90
16136;DHT22;8173;48.354;9.248;2022-12-20T07:29:07;1.30;99.90
16136;DHT22;8173;48.354;9.248;2022-12-20T07:31:34;1.30;99.90
16136;DHT22;8173;48.354;9.248;2022-12-20T07:34:01;1.40;99.90
16136;DHT22;8173;48.354;9.248;2022-12-20T07:36:28;1.40;99.90
16136;DHT22;8173;48.354;9.248;2022-12-20T07:38:54;1.50;99.90
16136;DHT22;8173;48.354;9.248;2022-12-20T07:41:21;1.40;99.90
16136;DHT22;8173;48.354;9.248;2022-12-20T07:43:49;1.50;99.90
16136;DHT22;8173;48.354;9.248;2022-12-20T07:46:18;1.50;99.90
16136;DHT22;8173;48.354;9.248;2022-12-20T07:48:46;1.50;99.90
16136;DHT22;8173;48.354;9.248;2022-12-20T07:51:15;1.60;99.90
16136;DHT22;8173;48.354;9.248;2022-12-20T07:53:47;1.60;99.90
16136;DHT22;8173;48.354;9.248;2022-12-20T07:56:17;1.70;99.90
16136;DHT22;8173;48.354;9.248;2022-12-20T07:58:45;1.70;99.90
16136;DHT22;8173;48.354;9.248;2022-12-20T08:01:12;1.80;99.90
16136;DHT22;8173;48.354;9.248;2022-12-20T08:03:43;1.80;99.90
16136;DHT22;8173;48.354;9.248;2022-12-20T08:06:11;1.80;99.90
16136;DHT22;8173;48.354;9.248;2022-12-20T08:08:42;1.90;99.90
16136;DHT22;8173;48.354;9.248;2022-12-20T08:11:10;1.90;99.90
16136;DHT22;8173;48.354;9.248;2022-12-20T08:13:37;2.00;99.90
16136;DHT22;8173;48.354;9.248;2022-12-20T08:16:05;2.10;99.90
16136;DHT22;8173;48.354;9.248;2022-12-20T08:18:32;2.20;99.90
16136;DHT22;8173;48.354;9.248;2022-12-20T08:21:00;2.30;99.90
16136;DHT22;8173;48.354;9.248;2022-12-20T08:23:26;2.40;99.90
16136;DHT22;8173;48.354;9.248;2022-12-20T08:25:53;2.40;99.90
16136;DHT22;8173;48.354;9.248;2022-12-20T08:28:20;2.40;99.90
16136;DHT22;8173;48.354;9.248;2022-12-20T08:30:48;2.30;99.90
16136;DHT22;8173;48.354;9.248;2022-12-20T08:33:15;2.40;99.90
16136;DHT22;8173;48.354;9.248;2022-12-20T08:35:41;2.40;99.90
16136;DHT22;8173;48.354;9.248;2022-12-20T08:38:10;2.50;99.90
16136;DHT22;8173;48.354;9.248;2022-12-20T08:40:36;2.50;99.90
16136;DHT22;8173;48.354;9.248;2022-12-20T08:43:03;2.50;99.90
16136;DHT22;8173;48.354;9.248;2022-12-20T08:45:30;2.60;99.90
16136;DHT22;8173;48.354;9.248;2022-12-20T08:47:57;2.70;99.90
16136;DHT22;8173;48.354;9.248;2022-12-20T08:50:23;2.70;99.90
16136;DHT22;8173;48.354;9.248;2022-12-20T08:52:51;2.70;99.90
16136;DHT22;8173;48.354;9.248;2022-12-20T08:55:19;2.70;99.90
16136;DHT22;8173;48.354;9.248;2022-12-20T08:57:46;2.70;99.90
16136;DHT22;8173;48.354;9.248;2022-12-20T09:00:13;2.70;99.90
16136;DHT22;8173;48.354;9.248;2022-12-20T09:02:40;2.70;99.90
16136;DHT22;8173;48.354;9.248;2022-12-20T09:05:08;2.60;99.90
16136;DHT22;8173;48.354;9.248;2022-12-20T09:07:34;2.60;99.90
16136;DHT22;8173;48.354;9.248;2022-12-20T09:10:01;2.70;99.90
16136;DHT22;8173;48.354;9.248;2022-12-20T09:12:29;2.70;99.90
16136;DHT22;8173;48.354;9.248;2022-12-20T09:14:56;2.70;99.90
16136;DHT22;8173;48.354;9.248;2022-12-20T09:17:23;2.80;99.90
16136;DHT22;8173;48.354;9.248;2022-12-20T09:19:49;2.90;99.90
16136;DHT22;8173;48.354;9.248;2022-12-20T09:22:16;3.00;99.90
16136;DHT22;8173;48.354;9.248;2022-12-20T09:24:43;3.20;99.90
16136;DHT22;8173;48.354;9.248;2022-12-20T09:27:09;3.20;99.90
16136;DHT22;8173;48.354;9.248;2022-12-20T09:32:06;3.30;99.90
16136;DHT22;8173;48.354;9.248;2022-12-20T09:34:33;3.40;99.90
16136;DHT22;8173;48.354;9.248;2022-12-20T09:36:59;3.50;99.90
16136;DHT22;8173;48.354;9.248;2022-12-20T09:39:26;3.60;99.90
16136;DHT22;8173;48.354;9.248;2022-12-20T09:41:53;3.70;99.90
16136;DHT22;8173;48.354;9.248;2022-12-20T09:44:24;3.90;99.90
16136;DHT22;8173;48.354;9.248;2022-12-20T09:46:54;4.00;99.90
16136;DHT22;8173;48.354;9.248;2022-12-20T09:49:26;4.00;99.90
16136;DHT22;8173;48.354;9.248;2022-12-20T09:52:08;4.00;99.90
16136;DHT22;8173;48.354;9.248;2022-12-20T09:54:43;3.90;99.90
16136;DHT22;8173;48.354;9.248;2022-12-20T09:57:18;3.90;99.90
16136;DHT22;8173;48.354;9.248;2022-12-20T09:59:48;3.80;99.90
16136;DHT22;8173;48.354;9.248;2022-12-20T10:02:19;3.90;99.90
16136;DHT22;8173;48.354;9.248;2022-12-20T10:04:47;3.80;99.90
16136;DHT22;8173;48.354;9.248;2022-12-20T10:07:25;3.60;99.90
16136;DHT22;8173;48.354;9.248;2022-12-20T10:10:07;3.60;99.90
16136;DHT22;8173;48.354;9.248;2022-12-20T10:12:46;3.50;99.90
16136;DHT22;8173;48.354;9.248;2022-12-20T10:15:19;3.90;99.90
16136;DHT22;8173;48.354;9.248;2022-12-20T10:18:01;3.40;99.90
16136;DHT22;8173;48.354;9.248;2022-12-20T10:20:43;3.50;99.90
16136;DHT22;8173;48.354;9.248;2022-12-20T10:23:18;3.60;99.90
16136;DHT22;8173;48.354;9.248;2022-12-20T10:25:49;3.60;99.90
16136;DHT22;8173;48.354;9.248;2022-12-20T10:28:16;3.50;99.90
16136;DHT22;8173;48.354;9.248;2022-12-20T10:30:43;3.40;99.90
16136;DHT22;8173;48.354;9.248;2022-12-20T10:33:17;3.40;99.90
16136;DHT22;8173;48.354;9.248;2022-12-20T10:35:44;3.40;99.90
16136;DHT22;8173;48.354;9.248;2022-12-20T10:38:12;3.40;99.90
16136;DHT22;8173;48.354;9.248;2022-12-20T10:40:43;3.60;99.90
16136;DHT22;8173;48.354;9.248;2022-12-20T10:43:15;3.70;99.90
16136;DHT22;8173;48.354;9.248;2022-12-20T10:45:44;3.60;99.90
16136;DHT22;8173;48.354;9.248;2022-12-20T10:48:27;3.40;99.90
16136;DHT22;8173;48.354;9.248;2022-12-20T10:50:56;3.40;99.90
16136;DHT22;8173;48.354;9.248;2022-12-20T10:53:24;3.40;99.90
16136;DHT22;8173;48.354;9.248;2022-12-20T10:55:52;3.50;99.90
16136;DHT22;8173;48.354;9.248;2022-12-20T10:58:29;3.50;99.90
16136;DHT22;8173;48.354;9.248;2022-12-20T11:01:10;3.60;99.90
16136;DHT22;8173;48.354;9.248;2022-12-20T11:03:51;3.50;99.90
16136;DHT22;8173;48.354;9.248;2022-12-20T11:06:18;3.40;99.90
16136;DHT22;8173;48.354;9.248;2022-12-20T11:08:46;3.30;99.90
16136;DHT22;8173;48.354;9.248;2022-12-20T11:11:16;3.40;99.90
16136;DHT22;8173;48.354;9.248;2022-12-20T11:13:44;3.50;99.90
16136;DHT22;8173;48.354;9.248;2022-12-20T11:16:23;3.50;99.90
16136;DHT22;8173;48.354;9.248;2022-12-20T11:18:59;3.50;99.90
16136;DHT22;8173;48.354;9.248;2022-12-20T11:21:33;3.50;99.90
16136;DHT22;8173;48.354;9.248;2022-12-20T11:24:09;3.50;99.90
16136;DHT22;8173;48.354;9.248;2022-12-20T11:26:57;3.50;99.90
16136;DHT22;8173;48.354;9.248;2022-12-20T11:29:40;3.50;99.90
16136;DHT22;8173;48.354;9.248;2022-12-20T11:32:15;3.50;99.90
16136;DHT22;8173;48.354;9.248;2022-12-20T11:34:54;3.40;99.90
16136;DHT22;8173;48.354;9.248;2022-12-20T11:37:32;3.50;99.90
16136;DHT22;8173;48.354;9.248;2022-12-20T11:40:15;3.50;99.90
16136;DHT22;8173;48.354;9.248;2022-12-20T11:42:54;3.70;99.90
16136;DHT22;8173;48.354;9.248;2022-12-20T11:45:26;3.80;99.90
16136;DHT22;8173;48.354;9.248;2022-12-20T11:48:05;3.90;99.90
16136;DHT22;8173;48.354;9.248;2022-12-20T11:50:44;3.90;99.90
16136;DHT22;8173;48.354;9.248;2022-12-20T11:53:19;3.90;99.90
16136;DHT22;8173;48.354;9.248;2022-12-20T11:55:51;3.90;99.90
16136;DHT22;8173;48.354;9.248;2022-12-20T11:58:23;3.80;99.90
16136;DHT22;8173;48.354;9.248;2022-12-20T12:00:54;3.80;99.90
16136;DHT22;8173;48.354;9.248;2022-12-20T12:03:26;3.80;99.90
16136;DHT22;8173;48.354;9.248;2022-12-20T12:05:58;3.80;99.90
16136;DHT22;8173;48.354;9.248;2022-12-20T12:08:30;3.80;99.90
16136;DHT22;8173;48.354;9.248;2022-12-20T12:11:04;3.70;99.90
16136;DHT22;8173;48.354;9.248;2022-12-20T12:13:34;3.80;99.90
16136;DHT22;8173;48.354;9.248;2022-12-20T12:16:07;4.00;99.90
16136;DHT22;8173;48.354;9.248;2022-12-20T12:18:35;4.20;99.90
16136;DHT22;8173;48.354;9.248;2022-12-20T12:21:09;4.40;99.90
16136;DHT22;8173;48.354;9.248;2022-12-20T12:23:44;4.50;99.90
16136;DHT22;8173;48.354;9.248;2022-12-20T12:26:17;4.70;99.90
16136;DHT22;8173;48.354;9.248;2022-12-20T12:28:47;4.70;99.90
16136;DHT22;8173;48.354;9.248;2022-12-20T12:31:19;4.70;99.90
16136;DHT22;8173;48.354;9.248;2022-12-20T12:34:06;4.70;99.90
16136;DHT22;8173;48.354;9.248;2022-12-20T12:37:04;4.60;99.90
16136;DHT22;8173;48.354;9.248;2022-12-20T12:39:56;4.60;99.90
16136;DHT22;8173;48.354;9.248;2022-12-20T12:42:58;4.50;99.90
16136;DHT22;8173;48.354;9.248;2022-12-20T12:45:33;4.40;99.90
16136;DHT22;8173;48.354;9.248;2022-12-20T12:48:05;4.30;99.90
16136;DHT22;8173;48.354;9.248;2022-12-20T12:50:36;4.40;99.90
16136;DHT22;8173;48.354;9.248;2022-12-20T12:53:06;4.40;99.90
16136;DHT22;8173;48.354;9.248;2022-12-20T12:55:38;4.40;99.90
16136;DHT22;8173;48.354;9.248;2022-12-20T12:58:30;4.40;99.90
16136;DHT22;8173;48.354;9.248;2022-12-20T13:00:58;4.40;99.90
16136;DHT22;8173;48.354;9.248;2022-12-20T13:03:44;4.40;99.90
16136;DHT22;8173;48.354;9.248;2022-12-20T13:06:50;4.40;99.90
16136;DHT22;8173;48.354;9.248;2022-12-20T13:09:38;4.40;99.90
16136;DHT22;8173;48.354;9.248;2022-12-20T13:15:46;4.40;99.90
16136;DHT22;8173;48.354;9.248;2022-12-20T13:18:23;4.30;99.90
16136;DHT22;8173;48.354;9.248;2022-12-20T13:27:15;4.00;99.90
16136;DHT22;8173;48.354;9.248;2022-12-20T13:36:04;3.80;99.90
16136;DHT22;8173;48.354;9.248;2022-12-20T13:38:48;3.80;99.90
16136;DHT22;8173;48.354;9.248;2022-12-20T13:41:24;3.80;99.90
16136;DHT22;8173;48.354;9.248;2022-12-20T13:43:52;3.80;99.90
16136;DHT22;8173;48.354;9.248;2022-12-20T13:46:25;3.80;99.90
16136;DHT22;8173;48.354;9.248;2022-12-20T13:48:56;3.80;99.90
16136;DHT22;8173;48.354;9.248;2022-12-20T13:51:26;3.80;99.90
16136;DHT22;8173;48.354;9.248;2022-12-20T13:53:54;3.80;99.90
16136;DHT22;8173;48.354;9.248;2022-12-20T13:56:34;3.80;99.90
16136;DHT22;8173;48.354;9.248;2022-12-20T13:59:11;3.90;99.90
16136;DHT22;8173;48.354;9.248;2022-12-20T14:01:47;4.20;99.90
16136;DHT22;8173;48.354;9.248;2022-12-20T14:04:14;4.30;99.90
16136;DHT22;8173;48.354;9.248;2022-12-20T14:06:40;4.50;99.90
16136;DHT22;8173;48.354;9.248;2022-12-20T14:09:25;4.40;99.90
16136;DHT22;8173;48.354;9.248;2022-12-20T14:11:52;4.50;99.90
16136;DHT22;8173;48.354;9.248;2022-12-20T14:14:20;4.80;99.90
16136;DHT22;8173;48.354;9.248;2022-12-20T14:16:47;5.10;99.90
16136;DHT22;8173;48.354;9.248;2022-12-20T14:19:14;5.30;99.90
16136;DHT22;8173;48.354;9.248;2022-12-20T14:21:42;5.50;99.90
16136;DHT22;8173;48.354;9.248;2022-12-20T14:24:14;5.60;99.90
16136;DHT22;8173;48.354;9.248;2022-12-20T14:26:44;5.60;99.90
16136;DHT22;8173;48.354;9.248;2022-12-20T14:29:16;5.40;99.90
16136;DHT22;8173;48.354;9.248;2022-12-20T14:31:46;5.20;99.90
16136;DHT22;8173;48.354;9.248;2022-12-20T14:34:16;5.10;99.90
16136;DHT22;8173;48.354;9.248;2022-12-20T14:36:45;4.90;99.90
16136;DHT22;8173;48.354;9.248;2022-12-20T14:39:31;4.80;99.90
16136;DHT22;8173;48.354;9.248;2022-12-20T14:41:59;4.70;99.90
16136;DHT22;8173;48.354;9.248;2022-12-20T14:44:27;4.70;99.90
16136;DHT22;8173;48.354;9.248;2022-12-20T14:46:57;4.60;99.90
16136;DHT22;8173;48.354;9.248;2022-12-20T14:49:26;4.50;99.90
16136;DHT22;8173;48.354;9.248;2022-12-20T14:52:06;4.40;99.90
16136;DHT22;8173;48.354;9.248;2022-12-20T14:54:33;4.40;99.90
16136;DHT22;8173;48.354;9.248;2022-12-20T14:57:00;4.20;99.90
16136;DHT22;8173;48.354;9.248;2022-12-20T14:59:28;4.30;99.90
16136;DHT22;8173;48.354;9.248;2022-12-20T15:01:57;4.30;99.90
16136;DHT22;8173;48.354;9.248;2022-12-20T15:04:44;4.20;99.90
16136;DHT22;8173;48.354;9.248;2022-12-20T15:07:28;4.00;99.90
16136;DHT22;8173;48.354;9.248;2022-12-20T15:09:55;3.70;99.90
16136;DHT22;8173;48.354;9.248;2022-12-20T15:12:23;3.60;99.90
16136;DHT22;8173;48.354;9.248;2022-12-20T15:14:50;2.40;99.90
16136;DHT22;8173;48.354;9.248;2022-12-20T15:17:18;3.80;99.90
16136;DHT22;8173;48.354;9.248;2022-12-20T15:19:45;3.80;99.90
16136;DHT22;8173;48.354;9.248;2022-12-20T15:22:14;3.90;99.90
16136;DHT22;8173;48.354;9.248;2022-12-20T15:24:42;3.90;99.90
16136;DHT22;8173;48.354;9.248;2022-12-20T15:27:11;3.80;99.90
16136;DHT22;8173;48.354;9.248;2022-12-20T15:29:39;3.60;99.90
16136;DHT22;8173;48.354;9.248;2022-12-20T15:32:12;3.50;99.90
16136;DHT22;8173;48.354;9.248;2022-12-20T15:34:41;3.40;99.90
16136;DHT22;8173;48.354;9.248;2022-12-20T15:37:13;3.30;99.90
16136;DHT22;8173;48.354;9.248;2022-12-20T15:39:41;3.30;99.90
16136;DHT22;8173;48.354;9.248;2022-12-20T15:42:12;3.20;99.90
16136;DHT22;8173;48.354;9.248;2022-12-20T15:44:40;3.10;99.90
16136;DHT22;8173;48.354;9.248;2022-12-20T15:47:09;3.10;99.90
16136;DHT22;8173;48.354;9.248;2022-12-20T15:49:37;3.10;99.90
16136;DHT22;8173;48.354;9.248;2022-12-20T15:52:05;3.10;99.90
16136;DHT22;8173;48.354;9.248;2022-12-20T15:54:34;3.10;99.90
16136;DHT22;8173;48.354;9.248;2022-12-20T15:57:03;3.20;99.90
16136;DHT22;8173;48.354;9.248;2022-12-20T15:59:31;3.10;99.90
16136;DHT22;8173;48.354;9.248;2022-12-20T16:01:58;3.10;99.90
16136;DHT22;8173;48.354;9.248;2022-12-20T16:04:25;3.10;99.90
16136;DHT22;8173;48.354;9.248;2022-12-20T16:06:53;3.10;99.90
16136;DHT22;8173;48.354;9.248;2022-12-20T16:09:21;3.10;99.90
16136;DHT22;8173;48.354;9.248;2022-12-20T16:11:50;3.10;99.90
16136;DHT22;8173;48.354;9.248;2022-12-20T16:14:19;3.10;99.90
16136;DHT22;8173;48.354;9.248;2022-12-20T16:16:46;3.00;99.90
16136;DHT22;8173;48.354;9.248;2022-12-20T16:19:14;3.00;99.90
16136;DHT22;8173;48.354;9.248;2022-12-20T16:21:44;3.10;99.90
16136;DHT22;8173;48.354;9.248;2022-12-20T16:24:13;3.30;99.90
16136;DHT22;8173;48.354;9.248;2022-12-20T16:26:41;3.40;99.90
16136;DHT22;8173;48.354;9.248;2022-12-20T16:29:08;3.30;99.90
16136;DHT22;8173;48.354;9.248;2022-12-20T16:31:36;3.20;99.90
16136;DHT22;8173;48.354;9.248;2022-12-20T16:34:05;3.20;99.90
16136;DHT22;8173;48.354;9.248;2022-12-20T16:36:33;3.20;99.90
16136;DHT22;8173;48.354;9.248;2022-12-20T16:38:59;3.20;99.90